createdAt,value
2023-03-22T00:00:52.612Z,10.16
2023-03-22T00:03:22.406Z,10.09
2023-03-22T00:05:57.309Z,9.94
2023-03-22T00:08:46.048Z,9.85
2023-03-22T00:11:24.474Z,9.76
2023-03-22T00:13:53.879Z,9.70
2023-03-22T00:16:22.436Z,9.65
2023-03-22T00:19:02.911Z,9.66
2023-03-22T00:21:31.600Z,9.67
2023-03-22T00:23:59.982Z,9.64
2023-03-22T00:26:28.381Z,9.63
2023-03-22T00:28:57.047Z,9.67
2023-03-22T00:31:28.940Z,9.72
2023-03-22T00:33:57.712Z,9.76
2023-03-22T00:36:26.114Z,9.81
2023-03-22T00:38:54.564Z,9.84
2023-03-22T00:41:23.478Z,9.87
2023-03-22T00:43:57.674Z,9.92
2023-03-22T00:46:26.446Z,10.00
2023-03-22T00:48:54.946Z,10.04
2023-03-22T00:51:24.620Z,10.08
2023-03-22T00:53:54.472Z,10.09
2023-03-22T00:56:25.846Z,10.10
2023-03-22T00:58:58.937Z,10.09
2023-03-22T01:01:32.458Z,10.08
2023-03-22T01:04:03.368Z,10.13
2023-03-22T01:06:33.703Z,10.17
2023-03-22T01:09:02.087Z,10.19
2023-03-22T01:11:34.839Z,10.21
2023-03-22T01:14:04.143Z,10.19
2023-03-22T01:16:32.487Z,10.17
2023-03-22T01:19:01.521Z,10.14
2023-03-22T01:21:30.102Z,10.10
2023-03-22T01:23:58.482Z,10.11
2023-03-22T01:26:27.064Z,10.15
2023-03-22T01:28:57.493Z,10.15
2023-03-22T01:31:26.294Z,10.13
2023-03-22T01:33:54.867Z,10.11
2023-03-22T01:36:24.074Z,10.08
2023-03-22T01:38:53.166Z,10.03
2023-03-22T01:41:22.189Z,9.94
2023-03-22T01:44:10.924Z,9.92
2023-03-22T01:46:41.543Z,9.89
2023-03-22T01:49:14.394Z,9.85
2023-03-22T01:51:46.733Z,9.85
2023-03-22T01:54:47.657Z,9.85
2023-03-22T01:58:40.631Z,9.81
2023-03-22T02:01:10.090Z,9.73
2023-03-22T02:03:59.300Z,9.72
2023-03-22T02:06:30.122Z,9.71
2023-03-22T02:09:11.620Z,9.71
2023-03-22T02:11:46.685Z,9.65
2023-03-22T02:14:28.612Z,9.53
2023-03-22T02:17:39.126Z,9.43
2023-03-22T02:20:47.451Z,9.47
2023-03-22T02:23:28.110Z,9.52
2023-03-22T02:26:20.555Z,9.52
2023-03-22T02:28:53.645Z,9.54
2023-03-22T02:31:37.764Z,9.55
2023-03-22T02:34:25.018Z,9.55
2023-03-22T02:36:54.428Z,9.53
2023-03-22T02:39:39.493Z,9.57
2023-03-22T02:42:15.454Z,9.65
2023-03-22T02:44:50.106Z,9.63
2023-03-22T02:47:41.496Z,9.63
2023-03-22T02:50:22.679Z,9.61
2023-03-22T02:52:58.131Z,9.60
2023-03-22T02:55:31.989Z,9.60
2023-03-22T02:58:15.467Z,9.62
2023-03-22T03:00:46.749Z,9.67
2023-03-22T03:03:18.578Z,9.66
2023-03-22T03:05:53.342Z,9.66
2023-03-22T03:08:22.202Z,9.67
2023-03-22T03:10:53.526Z,9.66
2023-03-22T03:13:22.032Z,9.64
2023-03-22T03:15:54.290Z,9.68
2023-03-22T03:18:39.312Z,9.74
2023-03-22T03:21:30.228Z,9.76
2023-03-22T03:24:18.439Z,9.75
2023-03-22T03:27:08.316Z,9.72
2023-03-22T03:29:42.836Z,9.67
2023-03-22T03:32:54.229Z,9.60
2023-03-22T03:35:27.048Z,9.62
2023-03-22T03:37:59.122Z,9.64
2023-03-22T03:40:32.625Z,9.65
2023-03-22T03:43:03.416Z,9.63
2023-03-22T03:45:32.075Z,9.62
2023-03-22T03:48:02.132Z,9.60
2023-03-22T03:50:31.125Z,9.58
2023-03-22T03:52:59.811Z,9.62
2023-03-22T03:55:28.599Z,9.65
2023-03-22T03:57:57.081Z,9.62
2023-03-22T04:00:25.880Z,9.61
2023-03-22T04:03:13.605Z,9.62
2023-03-22T04:05:56.220Z,9.61
2023-03-22T04:08:24.906Z,9.66
2023-03-22T04:10:53.394Z,9.67
2023-03-22T04:13:25.460Z,9.67
2023-03-22T04:15:57.729Z,9.68
2023-03-22T04:18:29.917Z,9.65
2023-03-22T04:20:59.517Z,9.58
2023-03-22T04:23:27.976Z,9.51
2023-03-22T04:25:59.964Z,9.56
2023-03-22T04:28:42.689Z,9.64
2023-03-22T04:31:15.552Z,9.66
2023-03-22T04:34:00.750Z,9.65
2023-03-22T04:36:43.040Z,9.61
2023-03-22T04:39:19.610Z,9.59
2023-03-22T04:41:55.467Z,9.60
2023-03-22T04:44:23.845Z,9.66
2023-03-22T04:46:52.540Z,9.72
2023-03-22T04:49:24.603Z,9.74
2023-03-22T04:51:56.471Z,9.74
2023-03-22T04:54:37.132Z,9.70
2023-03-22T04:57:06.139Z,9.64
2023-03-22T04:59:39.475Z,9.66
2023-03-22T05:02:07.909Z,9.70
2023-03-22T05:04:43.153Z,9.71
2023-03-22T05:07:25.967Z,9.67
2023-03-22T05:09:56.086Z,9.60
2023-03-22T05:12:26.003Z,9.55
2023-03-22T05:15:04.521Z,9.59
2023-03-22T05:17:36.710Z,9.64
2023-03-22T05:20:10.400Z,9.69
2023-03-22T05:22:41.339Z,9.74
2023-03-22T05:25:11.977Z,9.78
2023-03-22T05:27:43.118Z,9.80
2023-03-22T05:30:25.833Z,9.85
2023-03-22T05:33:00.790Z,9.90
2023-03-22T05:35:33.044Z,9.92
2023-03-22T05:38:02.856Z,9.93
2023-03-22T05:40:32.875Z,9.92
2023-03-22T05:43:01.780Z,9.95
2023-03-22T05:45:33.439Z,10.06
2023-03-22T05:48:11.677Z,10.16
2023-03-22T05:50:41.326Z,10.22
2023-03-22T05:53:14.038Z,10.26
2023-03-22T05:56:18.150Z,10.28
2023-03-22T05:58:47.555Z,10.26
2023-03-22T06:01:17.984Z,10.24
2023-03-22T06:03:49.335Z,10.25
2023-03-22T06:06:34.216Z,10.31
2023-03-22T06:09:17.400Z,10.32
2023-03-22T06:11:51.545Z,10.36
2023-03-22T06:14:20.644Z,10.45
2023-03-22T06:17:08.819Z,10.53
2023-03-22T06:19:41.168Z,10.60
2023-03-22T06:22:10.155Z,10.69
2023-03-22T06:24:41.008Z,10.72
2023-03-22T06:27:10.282Z,10.75
2023-03-22T06:29:42.054Z,10.80
2023-03-22T06:32:10.855Z,10.85
2023-03-22T06:34:39.325Z,10.92
2023-03-22T06:37:08.110Z,11.01
2023-03-22T06:39:41.213Z,11.10
2023-03-22T06:42:10.398Z,11.13
2023-03-22T06:44:42.567Z,11.15
2023-03-22T06:47:40.248Z,11.17
2023-03-22T06:50:17.821Z,11.18
2023-03-22T06:53:08.533Z,11.20
2023-03-22T06:55:37.632Z,11.24
2023-03-22T06:58:26.489Z,11.25
2023-03-22T07:00:58.491Z,11.23
2023-03-22T07:03:29.806Z,11.26
2023-03-22T07:06:06.099Z,11.25
2023-03-22T07:08:35.782Z,11.33
2023-03-22T07:11:07.959Z,11.36
2023-03-22T07:13:37.154Z,11.44
2023-03-22T07:16:10.919Z,11.50
2023-03-22T07:18:52.457Z,11.51
2023-03-22T07:21:21.033Z,11.54
2023-03-22T07:23:53.305Z,11.60
2023-03-22T07:26:22.402Z,11.67
2023-03-22T07:28:51.720Z,11.74
2023-03-22T07:31:20.596Z,11.81
2023-03-22T07:34:00.798Z,11.95
2023-03-22T07:36:31.732Z,12.07
2023-03-22T07:39:02.121Z,12.14
2023-03-22T07:41:34.806Z,12.22
2023-03-22T07:44:22.032Z,12.35
2023-03-22T07:47:40.312Z,12.50
2023-03-22T07:50:36.294Z,12.54
2023-03-22T07:53:06.529Z,12.57
2023-03-22T07:55:36.781Z,12.63
2023-03-22T07:58:06.230Z,12.77
2023-03-22T08:00:34.854Z,12.86
2023-03-22T08:03:23.813Z,12.89
2023-03-22T08:06:07.971Z,12.95
2023-03-22T08:08:37.212Z,12.95
2023-03-22T08:11:07.309Z,12.84
2023-03-22T08:13:36.687Z,12.83
2023-03-22T08:16:07.165Z,12.92
2023-03-22T08:18:36.282Z,13.05
2023-03-22T08:21:05.690Z,13.11
2023-03-22T08:23:42.028Z,13.23
2023-03-22T08:26:11.282Z,13.47
2023-03-22T08:28:44.681Z,13.69
2023-03-22T08:31:15.568Z,13.92
2023-03-22T08:33:45.375Z,14.09
2023-03-22T08:36:16.541Z,14.20
2023-03-22T08:38:53.970Z,14.33
2023-03-22T08:41:26.040Z,14.27
2023-03-22T08:43:54.627Z,14.22
2023-03-22T08:46:25.579Z,14.20
2023-03-22T08:48:54.765Z,13.97
2023-03-22T08:51:33.387Z,13.66
2023-03-22T08:54:11.494Z,13.40
2023-03-22T08:57:03.836Z,13.16
2023-03-22T08:59:42.877Z,12.97
2023-03-22T09:02:25.632Z,12.82
2023-03-22T09:04:54.360Z,12.71
2023-03-22T09:07:26.236Z,12.67
2023-03-22T09:10:07.973Z,12.74
2023-03-22T09:12:38.671Z,12.91
2023-03-22T09:15:08.165Z,13.09
2023-03-22T09:17:38.300Z,13.25
2023-03-22T09:20:12.883Z,13.38
2023-03-22T09:22:44.176Z,13.46
2023-03-22T09:25:14.088Z,13.49
2023-03-22T09:27:44.822Z,13.52
2023-03-22T09:30:14.736Z,13.53
2023-03-22T09:32:43.647Z,13.62
2023-03-22T09:35:14.605Z,13.94
2023-03-22T09:37:54.784Z,14.42
2023-03-22T09:40:29.458Z,14.72
2023-03-22T09:42:59.601Z,14.97
2023-03-22T09:45:38.673Z,15.24
2023-03-22T09:48:13.807Z,15.50
2023-03-22T09:50:49.606Z,15.85
2023-03-22T09:53:18.510Z,16.22
2023-03-22T09:56:15.754Z,16.65
2023-03-22T09:58:53.757Z,17.04
2023-03-22T10:01:46.520Z,17.03
2023-03-22T10:04:57.437Z,16.96
2023-03-22T10:07:34.344Z,16.83
2023-03-22T10:10:10.544Z,16.60
2023-03-22T10:12:42.517Z,16.26
2023-03-22T10:15:24.514Z,16.04
2023-03-22T10:17:54.703Z,15.73
2023-03-22T10:20:23.128Z,15.44
2023-03-22T10:22:54.358Z,15.29
2023-03-22T10:25:33.504Z,15.19
2023-03-22T10:28:16.375Z,15.16
2023-03-22T10:30:45.223Z,15.26
2023-03-22T10:33:35.588Z,15.33
2023-03-22T10:36:06.715Z,15.34
2023-03-22T10:38:44.978Z,15.35
2023-03-22T10:41:15.510Z,15.49
2023-03-22T10:43:44.630Z,15.64
2023-03-22T10:46:17.047Z,15.88
2023-03-22T10:48:46.734Z,16.40
2023-03-22T10:51:29.614Z,16.93
2023-03-22T10:54:00.257Z,17.25
2023-03-22T10:56:28.638Z,17.57
2023-03-22T10:59:01.426Z,17.84
2023-03-22T11:01:39.441Z,17.99
2023-03-22T11:04:13.912Z,18.22
2023-03-22T11:06:53.941Z,18.65
2023-03-22T11:09:24.043Z,18.94
2023-03-22T11:12:00.248Z,19.08
2023-03-22T11:14:43.318Z,19.26
2023-03-22T11:17:23.690Z,19.45
2023-03-22T11:20:08.076Z,19.40
2023-03-22T11:22:41.763Z,19.26
2023-03-22T11:25:18.922Z,19.06
2023-03-22T11:28:09.862Z,18.85
2023-03-22T11:30:39.293Z,18.53
2023-03-22T11:33:19.519Z,18.34
2023-03-22T11:35:57.899Z,18.25
2023-03-22T11:38:32.308Z,18.01
2023-03-22T11:41:02.719Z,17.87
2023-03-22T11:43:48.564Z,17.88
2023-03-22T11:46:19.570Z,17.98
2023-03-22T11:48:50.084Z,18.48
2023-03-22T11:51:40.687Z,19.13
2023-03-22T11:54:16.624Z,19.58
2023-03-22T11:56:46.638Z,19.78
2023-03-22T11:59:16.962Z,19.98
2023-03-22T12:01:51.699Z,20.37
2023-03-22T12:04:24.414Z,20.97
2023-03-22T12:06:56.957Z,21.56
2023-03-22T12:09:47.151Z,21.92
2023-03-22T12:12:43.089Z,22.26
2023-03-22T12:15:24.058Z,22.44
2023-03-22T12:17:57.081Z,22.66
2023-03-22T12:20:32.297Z,22.82
2023-03-22T12:23:01.292Z,22.95
2023-03-22T12:25:34.693Z,22.73
2023-03-22T12:28:08.734Z,22.19
2023-03-22T12:30:46.605Z,21.68
2023-03-22T12:33:25.739Z,21.25
2023-03-22T12:36:01.115Z,20.65
2023-03-22T12:38:46.599Z,20.17
2023-03-22T12:41:36.769Z,19.93
2023-03-22T12:44:26.337Z,20.06
2023-03-22T12:47:16.643Z,20.38
2023-03-22T12:49:56.728Z,20.35
2023-03-22T12:52:45.700Z,19.98
2023-03-22T12:55:23.886Z,19.86
2023-03-22T12:57:56.875Z,19.76
2023-03-22T13:00:39.903Z,19.53
2023-03-22T13:03:21.347Z,19.16
2023-03-22T13:05:50.445Z,18.70
2023-03-22T13:08:20.803Z,18.26
2023-03-22T13:10:50.315Z,17.93
2023-03-22T13:13:21.778Z,17.65
2023-03-22T13:15:56.177Z,17.54
2023-03-22T13:18:45.468Z,17.64
2023-03-22T13:21:24.788Z,17.76
2023-03-22T13:24:05.353Z,17.85
2023-03-22T13:26:36.650Z,17.87
2023-03-22T13:29:11.333Z,17.74
2023-03-22T13:32:00.671Z,17.59
2023-03-22T13:34:32.586Z,17.43
2023-03-22T13:37:03.822Z,17.36
2023-03-22T13:39:34.758Z,17.35
2023-03-22T13:42:17.579Z,17.65
2023-03-22T13:44:47.290Z,18.09
2023-03-22T13:47:42.533Z,18.58
2023-03-22T13:50:25.060Z,19.27
2023-03-22T13:53:30.376Z,20.12
2023-03-22T13:56:01.118Z,20.87
2023-03-22T13:58:38.403Z,21.34
2023-03-22T14:01:36.446Z,21.90
2023-03-22T14:04:09.768Z,22.38
2023-03-22T14:06:54.123Z,22.84
2023-03-22T14:09:59.178Z,23.13
2023-03-22T14:12:45.891Z,23.02
2023-03-22T14:16:33.938Z,23.18
2023-03-22T14:19:03.026Z,23.21
2023-03-22T14:21:36.220Z,22.88
